Time;durP1;ratioP1;P1;durP2;ratioP2;P2;SDS_P1;SDS_P2;PMS_P1;PMS_P2;Temp;Humidity;BMP_temperature;BMP_pressure;BME280_temperature;BME280_humidity;BME280_pressure;Samples;Min_cycle;Max_cycle;Signal;HPM_P1;HPM_P2
2021/03/27 00:00:21;;;;;;;8.77;3.27;;;;;;;12.96;43.38;95631.66;5031994;28;20725;-87
2021/03/27 00:03:09;;;;;;;3.63;3.10;;;;;;;12.94;43.29;95629.25;5007863;28;20286;-87
2021/03/27 00:06:02;;;;;;;6.97;5.87;;;;;;;13.00;43.43;95625.94;5013601;28;20254;-88
2021/03/27 00:08:49;;;;;;;3.70;3.20;;;;;;;12.99;43.39;95639.03;5024044;28;20249;-87
2021/03/27 00:11:40;;;;;;;3.30;2.80;;;;;;;12.94;43.51;95633.63;5030686;28;20643;-87
2021/03/27 00:14:22;;;;;;;6.00;2.97;;;;;;;12.96;43.06;95639.41;5027144;28;20296;-87
2021/03/27 00:17:10;;;;;;;4.43;3.20;;;;;;;12.83;43.76;95642.72;5028038;28;20691;-87
2021/03/27 00:19:50;;;;;;;3.50;3.13;;;;;;;12.83;43.77;95634.16;5031857;28;20290;-87
2021/03/27 00:22:23;;;;;;;6.03;3.43;;;;;;;12.94;43.47;95652.53;5030692;28;20202;-87
2021/03/27 00:25:21;;;;;;;6.47;3.23;;;;;;;12.96;43.47;95650.53;5033130;28;20225;-87
2021/03/27 00:28:01;;;;;;;3.17;2.87;;;;;;;12.87;43.66;95667.19;5013198;28;20265;-87
2021/03/27 00:30:38;;;;;;;4.60;2.80;;;;;;;12.98;43.30;95656.34;5019895;28;20214;-88
2021/03/27 00:36:22;;;;;;;3.90;2.93;;;;;;;12.92;43.45;95659.66;5004845;28;20237;-87
2021/03/27 00:39:04;;;;;;;4.10;2.90;;;;;;;12.77;44.10;95662.34;5019334;28;20363;-87
2021/03/27 00:41:49;;;;;;;6.47;3.20;;;;;;;12.78;43.99;95663.16;5023644;28;20230;-88
2021/03/27 00:44:29;;;;;;;3.20;2.90;;;;;;;12.85;43.90;95678.72;4990467;28;20257;-87
2021/03/27 00:47:05;;;;;;;3.20;2.90;;;;;;;12.80;44.32;95672.31;5013376;28;20707;-86
2021/03/27 00:49:59;;;;;;;3.57;2.87;;;;;;;12.76;44.46;95663.34;5012033;28;20222;-87
2021/03/27 00:58:28;;;;;;;6.40;3.07;;;;;;;12.77;44.52;95615.84;5020764;28;20704;-87
2021/03/27 01:01:17;;;;;;;3.97;3.10;;;;;;;12.83;44.55;95636.75;5031529;28;20218;-86
2021/03/27 01:03:59;;;;;;;4.77;3.10;;;;;;;12.95;44.31;95630.06;5000153;28;20214;-87
2021/03/27 01:06:48;;;;;;;6.60;3.40;;;;;;;13.01;44.18;95624.13;5011818;28;20253;-87
2021/03/27 01:09:34;;;;;;;3.63;3.10;;;;;;;13.02;44.09;95613.63;5012176;28;20218;-88
2021/03/27 01:12:16;;;;;;;4.40;3.57;;;;;;;12.98;44.14;95629.69;5021989;28;20253;-87
2021/03/27 01:14:58;;;;;;;3.80;3.33;;;;;;;12.96;44.16;95631.66;5025029;28;20246;-86
2021/03/27 01:23:44;;;;;;;3.50;2.97;;;;;;;13.03;44.03;95638.47;4970768;28;20378;-87
2021/03/27 01:26:29;;;;;;;3.70;3.30;;;;;;;13.01;44.29;95624.94;5019490;28;20214;-87
2021/03/27 01:29:02;;;;;;;7.70;3.53;;;;;;;13.02;44.23;95630.91;5028883;28;20217;-87
2021/03/27 01:31:40;;;;;;;3.77;3.00;;;;;;;12.91;45.11;95618.50;5013936;28;20198;-87
2021/03/27 01:34:24;;;;;;;3.47;3.07;;;;;;;12.85;44.82;95606.34;5032199;28;20221;-87
2021/03/27 01:37:22;;;;;;;4.13;2.77;;;;;;;12.80;44.74;95587.03;5017814;28;20222;-87
2021/03/27 01:40:10;;;;;;;;;;;;;;;;;;;;;
2021/03/27 01:42:46;;;;;;;3.40;3.10;;;;;;;12.80;45.59;95597.38;5012713;28;20222;-86
2021/03/27 01:46:14;;;;;;;7.20;3.30;;;;;;;12.89;45.04;95598.03;5024891;28;20237;-86
2021/03/27 01:49:06;;;;;;;3.40;3.10;;;;;;;12.82;44.62;95597.19;5022131;28;20206;-87
2021/03/27 01:52:22;;;;;;;2.97;2.67;;;;;;;12.84;45.06;95587.47;5036079;28;20237;-86
2021/03/27 01:55:02;;;;;;;6.40;3.03;;;;;;;12.93;44.49;95577.75;5014274;28;20219;-86
2021/03/27 01:57:47;;;;;;;3.07;2.87;;;;;;;12.96;44.32;95564.47;5014781;28;20218;-87
2021/03/27 02:00:29;;;;;;;;;;;;;;;;;;;;;
2021/03/27 02:03:07;;;;;;;3.50;3.00;;;;;;;12.78;44.83;95567.56;5021723;28;20783;-87
2021/03/27 02:05:42;;;;;;;3.10;2.63;;;;;;;12.65;45.19;95581.19;5034908;28;20321;-87
2021/03/27 02:08:40;;;;;;;3.37;2.73;;;;;;;12.62;45.20;95591.91;5025830;28;20221;-87
2021/03/27 02:14:40;;;;;;;3.27;2.50;;;;;;;12.42;45.27;95588.38;5010222;28;20251;-87
2021/03/27 02:20:54;;;;;;;2.77;2.37;;;;;;;12.53;45.07;95580.09;5024104;28;20573;-86
2021/03/27 02:23:40;;;;;;;2.83;2.57;;;;;;;12.69;44.22;95574.66;5004195;28;20312;-87
2021/03/27 02:30:17;;;;;;;3.07;2.57;;;;;;;12.80;44.36;95576.72;5030500;28;20250;-87
2021/03/27 02:33:44;;;;;;;3.03;2.43;;;;;;;12.79;44.28;95571.72;4941836;28;20232;-87
2021/03/27 02:36:29;;;;;;;3.23;2.40;;;;;;;12.78;43.92;95572.72;4950394;28;20335;-87
2021/03/27 02:39:08;;;;;;;2.67;2.40;;;;;;;12.72;43.80;95573.47;4940898;29;20224;-86
2021/03/27 02:42:13;;;;;;;4.30;2.73;;;;;;;12.74;44.27;95582.63;4948831;28;20236;-86
2021/03/27 02:48:11;;;;;;;2.43;2.23;;;;;;;12.84;43.56;95594.44;5009977;28;20221;-87
2021/03/27 02:51:17;;;;;;;4.00;2.37;;;;;;;12.80;43.48;95601.75;5013207;28;20249;-87
2021/03/27 02:54:15;;;;;;;2.70;2.50;;;;;;;12.66;43.85;95613.00;5012971;28;20258;-86
2021/03/27 02:57:00;;;;;;;2.80;2.60;;;;;;;12.59;44.14;95625.06;5016007;28;20639;-87
2021/03/27 02:59:46;;;;;;;6.50;2.87;;;;;;;12.61;43.94;95628.25;5018254;28;20353;-87
2021/03/27 03:02:24;;;;;;;3.10;2.53;;;;;;;12.65;43.77;95632.06;5013774;28;20600;-86
2021/03/27 03:05:02;;;;;;;2.67;2.47;;;;;;;12.64;44.12;95636.44;5012480;28;20226;-87
2021/03/27 03:07:50;;;;;;;5.07;2.70;;;;;;;12.53;44.52;95636.13;5012189;28;20682;-86
2021/03/27 03:10:33;;;;;;;2.57;2.33;;;;;;;12.35;45.08;95634.78;5017837;28;20187;-87
2021/03/27 03:13:22;;;;;;;3.13;2.63;;;;;;;12.35;44.90;95636.56;5029108;28;20183;-87
2021/03/27 03:19:19;;;;;;;5.00;3.00;;;;;;;12.44;44.87;95643.22;5007455;28;20245;-87
2021/03/27 03:22:06;;;;;;;3.07;2.80;;;;;;;12.50;44.83;95650.22;5032521;28;20702;-86
2021/03/27 03:24:48;;;;;;;3.17;2.87;;;;;;;12.52;45.01;95648.22;5012875;28;20242;-87
2021/03/27 03:27:31;;;;;;;4.80;3.10;;;;;;;12.53;45.08;95657.59;5012847;28;20225;-87
2021/03/27 03:30:13;;;;;;;3.30;2.83;;;;;;;12.50;45.42;95662.34;5014085;28;20242;-85
2021/03/27 03:33:41;;;;;;;3.23;2.90;;;;;;;12.44;45.47;95669.84;5013030;28;20294;-87
2021/03/27 03:36:37;;;;;;;5.33;2.80;;;;;;;12.44;45.30;95661.28;5011934;28;20218;-87
2021/03/27 03:39:51;;;;;;;3.53;2.50;;;;;;;12.48;45.76;95666.91;5014244;28;20395;-87
2021/03/27 03:43:07;;;;;;;4.30;3.07;;;;;;;12.41;46.01;95665.03;4988409;28;20309;-87
2021/03/27 03:49:07;;;;;;;4.57;3.30;;;;;;;12.27;46.43;95659.97;5010435;28;20230;-86
2021/03/27 03:52:12;;;;;;;3.47;3.00;;;;;;;12.34;46.29;95666.75;5003258;28;20222;-87
2021/03/27 03:55:01;;;;;;;4.53;3.30;;;;;;;12.43;45.99;95664.88;5012335;28;20214;-86
2021/03/27 03:57:58;;;;;;;4.23;3.50;;;;;;;12.47;46.06;95671.25;5024435;28;20702;-87
2021/03/27 04:00:35;;;;;;;4.43;3.30;;;;;;;12.49;46.12;95677.03;4978419;28;20654;-87
2021/03/27 04:03:26;;;;;;;4.43;3.40;;;;;;;12.52;45.87;95675.84;5013808;28;20361;-86
2021/03/27 04:05:57;;;;;;;3.53;3.20;;;;;;;12.50;46.17;95681.22;5013220;28;20231;-88
2021/03/27 04:08:33;;;;;;;5.40;3.63;;;;;;;12.52;46.21;95686.97;5012691;28;20230;-87
2021/03/27 04:11:27;;;;;;;4.80;3.73;;;;;;;12.54;46.32;95691.97;5025466;28;20242;-87
2021/03/27 04:13:57;;;;;;;7.00;3.80;;;;;;;12.49;46.77;95686.56;4954612;28;21027;-87
2021/03/27 04:19:30;;;;;;;5.53;3.93;;;;;;;12.53;46.63;95692.94;5009306;28;20203;-87
2021/03/27 04:22:12;;;;;;;6.13;4.37;;;;;;;12.52;47.52;95692.13;5013128;28;20195;-87
2021/03/27 04:24:53;;;;;;;4.20;3.80;;;;;;;12.53;47.54;95700.69;5029502;28;20305;-87
2021/03/27 04:27:42;;;;;;;4.73;4.23;;;;;;;12.56;47.16;95708.06;5021672;28;20720;-87
2021/03/27 04:30:42;;;;;;;4.40;4.00;;;;;;;12.53;47.41;95708.44;5027109;28;20272;-87
2021/03/27 04:33:24;;;;;;;4.73;4.27;;;;;;;12.53;47.21;95716.97;5029760;28;20653;-87
2021/03/27 04:36:01;;;;;;;6.97;4.40;;;;;;;12.53;47.15;95722.16;5020446;28;20228;-88
2021/03/27 04:38:47;;;;;;;6.97;4.90;;;;;;;12.59;47.63;95733.53;5021165;28;20651;-88
2021/03/27 04:41:48;;;;;;;6.03;4.47;;;;;;;12.59;47.73;95731.75;5036485;28;20232;-87
2021/03/27 04:44:29;;;;;;;3.93;3.53;;;;;;;12.56;46.99;95732.13;5017171;28;20236;-88
2021/03/27 04:47:18;;;;;;;5.63;4.10;;;;;;;12.56;47.32;95737.28;5018549;28;20265;-87
2021/03/27 04:53:34;;;;;;;4.63;3.90;;;;;;;12.47;47.87;95747.94;4899755;29;20218;-86
2021/03/27 04:56:14;;;;;;;7.00;4.23;;;;;;;12.32;47.96;95753.94;4940058;28;20328;-86
2021/03/27 04:58:55;;;;;;;;;;;;;;;;;;;;;
2021/03/27 05:01:58;;;;;;;4.60;4.10;;;;;;;12.36;48.36;95762.91;5007363;28;20208;-85
2021/03/27 05:04:35;;;;;;;4.53;4.10;;;;;;;12.33;48.15;95773.59;5031274;28;20730;-86
2021/03/27 05:07:21;;;;;;;5.17;3.70;;;;;;;12.29;48.87;95784.50;5040306;28;20210;-83
2021/03/27 05:09:56;;;;;;;5.90;4.27;;;;;;;12.28;49.02;95790.63;5028461;28;20221;-84
2021/03/27 05:12:43;;;;;;;5.50;4.00;;;;;;;12.31;48.82;95777.38;5012247;28;20253;-86
2021/03/27 05:15:45;;;;;;;4.90;4.40;;;;;;;12.23;50.27;95793.75;5030328;28;20234;-85
2021/03/27 05:18:46;;;;;;;5.77;4.47;;;;;;;12.33;50.63;95791.66;5044372;28;20287;-86
2021/03/27 05:21:33;;;;;;;5.70;5.20;;;;;;;12.33;52.00;95785.72;5045083;28;20228;-84
2021/03/27 05:24:12;;;;;;;5.60;5.00;;;;;;;12.35;52.72;95799.25;5039942;28;20772;-85
2021/03/27 05:27:34;;;;;;;5.77;4.40;;;;;;;12.30;53.86;95807.56;5039800;28;20245;-85
2021/03/27 05:30:25;;;;;;;6.47;5.53;;;;;;;12.38;53.94;95809.22;5039304;28;20240;-84
2021/03/27 05:33:42;;;;;;;5.90;5.40;;;;;;;12.44;53.89;95813.66;5040075;28;20232;-87
2021/03/27 05:36:26;;;;;;;5.70;5.20;;;;;;;12.43;54.90;95812.84;5044983;28;20228;-85
2021/03/27 05:39:06;;;;;;;7.43;5.63;;;;;;;12.36;55.37;95830.03;5042339;28;20315;-85
2021/03/27 05:42:35;;;;;;;5.93;5.33;;;;;;;12.31;56.40;95836.75;5040939;28;20233;-85
2021/03/27 05:49:18;;;;;;;6.50;5.90;;;;;;;12.18;57.29;95850.28;4978089;28;20274;-86
2021/03/27 05:52:08;;;;;;;6.80;6.00;;;;;;;12.17;57.66;95850.47;4997145;28;20235;-86
2021/03/27 05:55:21;;;;;;;5.93;5.43;;;;;;;12.18;58.12;95870.13;4988657;28;20246;-84
2021/03/27 05:58:20;;;;;;;5.70;5.20;;;;;;;12.15;57.91;95873.06;5020431;28;20214;-85
2021/03/27 06:01:00;;;;;;;6.07;5.47;;;;;;;12.19;57.88;95882.88;5032271;28;20232;-85
2021/03/27 06:04:00;;;;;;;5.73;5.23;;;;;;;12.29;57.77;95885.19;5040588;28;20284;-85
2021/03/27 06:07:25;;;;;;;5.27;4.77;;;;;;;12.17;58.41;95894.34;5045037;28;20228;-86
2021/03/27 06:14:15;;;;;;;4.37;3.70;;;;;;;12.00;59.18;95891.13;5039553;28;20708;-85
2021/03/27 06:17:11;;;;;;;4.83;3.30;;;;;;;12.08;59.51;95883.31;5004495;28;20257;-86
2021/03/27 06:20:04;;;;;;;4.40;3.20;;;;;;;12.06;59.10;95878.34;5028088;28;20223;-85
2021/03/27 06:22:59;;;;;;;4.87;3.10;;;;;;;12.04;58.78;95893.19;4981779;28;20206;-85
2021/03/27 06:25:55;;;;;;;;;;;;;;;;;;;;;
2021/03/27 06:28:53;;;;;;;6.53;2.40;;;;;;;12.13;58.31;95901.63;5036453;28;20302;-85
2021/03/27 06:32:00;;;;;;;3.40;2.37;;;;;;;12.16;58.11;95910.81;5034263;28;20225;-87
2021/03/27 06:34:59;;;;;;;8.20;2.70;;;;;;;12.08;58.39;95920.25;5037179;28;20264;-84
2021/03/27 06:37:57;;;;;;;5.70;2.27;;;;;;;12.04;58.90;95918.19;5036445;28;20229;-85
2021/03/27 06:40:39;;;;;;;6.10;2.30;;;;;;;12.08;58.56;95922.84;5035970;28;20214;-85
2021/03/27 06:43:47;;;;;;;3.67;2.23;;;;;;;12.13;58.11;95929.22;5038701;28;20281;-86
2021/03/27 06:46:43;;;;;;;3.27;2.60;;;;;;;12.10;57.78;95927.81;5026985;28;20821;-87
2021/03/27 06:49:54;;;;;;;3.73;2.17;;;;;;;12.10;57.26;95935.56;5036924;28;20272;-86
2021/03/27 06:52:53;;;;;;;2.60;2.10;;;;;;;12.08;57.20;95933.16;4955353;28;20228;-84
2021/03/27 06:55:40;;;;;;;2.20;1.90;;;;;;;12.03;57.18;95938.03;5025441;28;20257;-85
2021/03/27 06:58:45;;;;;;;3.60;2.30;;;;;;;12.09;57.03;95952.84;5037511;28;20605;-85
2021/03/27 07:01:42;;;;;;;2.80;1.93;;;;;;;12.07;56.88;95954.78;5021968;28;20681;-85
2021/03/27 07:04:55;;;;;;;2.03;1.80;;;;;;;11.96;57.15;95951.81;5035810;28;20246;-85
2021/03/27 07:07:48;;;;;;;2.93;2.30;;;;;;;11.89;57.25;95961.25;4948538;28;20235;-85
2021/03/27 07:14:37;;;;;;;2.87;2.20;;;;;;;11.98;57.76;95965.34;5022658;28;20218;-86
2021/03/27 07:17:53;;;;;;;3.20;2.30;;;;;;;11.84;57.33;95972.09;5016738;28;20238;-86
2021/03/27 07:21:08;;;;;;;3.47;2.00;;;;;;;11.89;57.84;95979.31;4953841;28;20224;-87
2021/03/27 07:27:53;;;;;;;4.13;1.90;;;;;;;11.76;59.65;95998.75;5017037;28;20230;-85
2021/03/27 07:34:22;;;;;;;2.73;2.50;;;;;;;11.77;62.52;96009.88;5034218;28;20241;-85
2021/03/27 07:37:15;;;;;;;4.30;2.57;;;;;;;11.49;67.26;96050.84;5034902;28;20267;-86
2021/03/27 07:40:16;;;;;;;2.30;1.40;;;;;;;10.89;65.94;96072.03;5033237;28;20222;-86
2021/03/27 07:46:26;;;;;;;1.40;1.10;;;;;;;10.28;68.00;96095.81;5023533;23;20297;-84
2021/03/27 07:49:16;;;;;;;1.37;0.97;;;;;;;10.19;68.35;96107.09;5033357;28;20285;-84
2021/03/27 07:52:38;;;;;;;;;;;;;;;;;;;;;
2021/03/27 07:55:45;;;;;;;1.40;0.90;;;;;;;10.07;68.44;96140.00;5032216;28;20229;-85
2021/03/27 07:59:09;;;;;;;1.50;0.80;;;;;;;10.00;69.29;96157.88;5013041;28;20238;-85
2021/03/27 08:09:08;;;;;;;0.80;0.80;;;;;;;9.74;69.51;96185.44;4934906;28;20232;-85
2021/03/27 08:15:52;;;;;;;0.77;0.77;;;;;;;9.71;65.24;96193.47;4937742;29;20232;-85
2021/03/27 08:18:55;;;;;;;1.63;0.87;;;;;;;9.68;65.89;96198.91;4992144;28;20790;-85
2021/03/27 08:21:42;;;;;;;0.70;0.70;;;;;;;9.71;64.23;96193.47;5036444;28;20337;-85
2021/03/27 08:24:37;;;;;;;0.70;0.70;;;;;;;9.74;65.32;96198.31;5038683;28;20236;-87
2021/03/27 08:27:28;;;;;;;1.37;0.67;;;;;;;9.70;63.97;96200.38;5033475;28;20241;-85
2021/03/27 08:30:33;;;;;;;0.93;0.80;;;;;;;9.84;64.34;96208.44;5037644;28;20282;-86
2021/03/27 08:33:29;;;;;;;0.70;0.70;;;;;;;9.89;63.78;96219.06;5015594;28;20256;-86
2021/03/27 08:36:32;;;;;;;0.90;0.90;;;;;;;9.98;63.87;96216.38;5052878;28;20225;-86
2021/03/27 08:39:35;;;;;;;1.00;0.90;;;;;;;10.12;63.08;96217.53;5053580;28;20252;-85
2021/03/27 08:42:49;;;;;;;1.27;0.83;;;;;;;10.20;62.34;96219.34;5053243;28;20247;-85
2021/03/27 08:45:51;;;;;;;1.40;0.90;;;;;;;10.37;62.77;96234.66;5016760;28;20240;-85
2021/03/27 08:48:32;;;;;;;0.80;0.80;;;;;;;10.48;61.74;96240.44;5042397;28;20249;-86
2021/03/27 08:51:36;;;;;;;0.90;0.80;;;;;;;10.50;61.07;96246.25;5053079;28;20237;-84
2021/03/27 08:54:53;;;;;;;1.43;0.80;;;;;;;10.47;60.88;96241.41;5043165;28;20282;-84
2021/03/27 08:57:59;;;;;;;3.30;0.80;;;;;;;10.46;61.18;96243.19;5038558;28;20252;-84
2021/03/27 09:01:32;;;;;;;3.90;1.00;;;;;;;10.69;61.52;96248.50;5039870;28;20327;-84
2021/03/27 09:04:45;;;;;;;1.20;1.10;;;;;;;10.85;60.11;96247.72;5020806;28;20221;-85
2021/03/27 09:07:48;;;;;;;1.33;0.97;;;;;;;10.97;59.70;96248.97;4992207;28;20226;-84
2021/03/27 09:10:50;;;;;;;1.73;1.10;;;;;;;11.16;59.76;96250.44;4991093;28;20226;-85
2021/03/27 09:14:09;;;;;;;1.90;1.30;;;;;;;11.53;59.39;96248.09;5030802;28;20221;-86
2021/03/27 09:17:24;;;;;;;12.17;9.40;;;;;;;11.69;58.35;96242.88;4985503;28;20243;-87
2021/03/27 09:20:59;;;;;;;2.70;2.50;;;;;;;11.70;57.57;96244.50;5009967;28;20237;-86
2021/03/27 09:23:51;;;;;;;1.07;1.03;;;;;;;11.72;58.08;96254.66;4991078;28;20226;-86
2021/03/27 09:26:44;;;;;;;1.13;1.00;;;;;;;11.55;57.58;96253.88;5004003;28;20218;-85
2021/03/27 09:29:39;;;;;;;1.20;1.10;;;;;;;11.55;58.77;96261.59;4971431;28;20698;-85
2021/03/27 09:32:19;;;;;;;1.53;1.20;;;;;;;11.51;58.40;96268.09;5003607;28;20630;-85
2021/03/27 09:35:29;;;;;;;1.20;1.00;;;;;;;11.60;58.38;96274.00;5018635;28;20257;-85
2021/03/27 09:38:36;;;;;;;1.40;1.30;;;;;;;11.50;58.07;96271.63;5006085;28;20296;-84
2021/03/27 09:41:51;;;;;;;1.20;1.10;;;;;;;11.64;58.67;96275.28;5013871;28;20244;-85
2021/03/27 09:45:03;;;;;;;1.20;1.10;;;;;;;11.49;56.78;96276.94;4983099;28;20283;-85
2021/03/27 09:47:52;;;;;;;1.60;1.27;;;;;;;11.56;56.64;96275.31;5013526;28;20288;-85
2021/03/27 09:50:38;;;;;;;1.33;1.20;;;;;;;11.75;56.27;96280.09;5012267;28;20233;-86
2021/03/27 09:53:18;;;;;;;1.20;1.10;;;;;;;11.84;54.11;96298.97;5016600;28;20282;-87
2021/03/27 09:56:24;;;;;;;1.27;0.90;;;;;;;11.80;47.69;96274.47;5001562;28;20724;-87
2021/03/27 09:59:19;;;;;;;0.73;0.70;;;;;;;11.95;47.06;96281.34;5012710;28;20228;-85
2021/03/27 10:05:17;;;;;;;2.03;1.00;;;;;;;12.06;46.90;96287.91;5014446;28;20245;-86
2021/03/27 10:08:23;;;;;;;0.93;0.83;;;;;;;11.91;44.78;96285.25;5009175;28;20223;-87
2021/03/27 10:14:56;;;;;;;0.87;0.80;;;;;;;11.98;44.60;96285.34;5018010;28;20230;-87
2021/03/27 10:17:53;;;;;;;2.70;0.80;;;;;;;11.67;44.70;96285.28;5035943;28;20257;-85
2021/03/27 10:20:54;;;;;;;4.60;0.90;;;;;;;11.89;44.88;96299.28;5033326;28;20304;-87
2021/03/27 10:23:47;;;;;;;4.80;1.10;;;;;;;12.21;44.85;96298.31;5036849;28;20250;-86
2021/03/27 10:29:58;;;;;;;1.17;1.07;;;;;;;11.95;43.58;96309.72;5036096;28;20231;-85
2021/03/27 10:33:00;;;;;;;1.20;1.07;;;;;;;11.98;44.66;96314.56;5056103;28;20225;-84
2021/03/27 10:35:51;;;;;;;1.70;1.27;;;;;;;11.94;43.27;96297.78;5055738;28;20278;-87
2021/03/27 10:38:36;;;;;;;1.10;0.80;;;;;;;11.83;43.59;96326.53;5056173;28;20220;-85
2021/03/27 10:51:29;;;;;;;;;;;;;;;;;;;;;
2021/03/27 10:54:58;;;;;;;0.67;0.67;;;;;;;11.59;46.40;96311.09;5031777;28;20230;-86
2021/03/27 10:58:01;;;;;;;1.83;0.90;;;;;;;11.60;46.06;96307.53;5019433;28;20749;-86
2021/03/27 11:00:59;;;;;;;;;;;;;;;;;;;;;
2021/03/27 11:04:19;;;;;;;;;;;;;;;;;;;;;
2021/03/27 11:11:20;;;;;;;1.03;0.80;;;;;;;11.26;46.93;96324.03;4956678;28;20319;-85
2021/03/27 11:14:34;;;;;;;5.43;4.23;;;;;;;11.21;46.73;96323.72;5018990;28;20226;-85
2021/03/27 11:18:06;;;;;;;1.97;0.80;;;;;;;11.28;47.22;96316.94;4938774;28;20278;-87
2021/03/27 11:21:29;;;;;;;1.40;0.90;;;;;;;11.35;48.18;96328.19;4939006;28;20248;-85
2021/03/27 11:45:05;;;;;;;2.87;1.00;;;;;;;11.57;50.65;96356.88;5000361;28;20238;-85
2021/03/27 12:21:32;;;;;;;;;;;;;;;;;;;;;
2021/03/27 12:24:31;;;;;;;2.50;1.17;;;;;;;13.20;45.43;96331.97;5043709;28;20233;-84
2021/03/27 12:33:03;;;;;;;1.10;1.00;;;;;;;12.59;46.57;96323.31;5047244;28;20283;-86
2021/03/27 12:36:12;;;;;;;1.23;1.00;;;;;;;12.66;46.19;96326.81;5057328;28;20232;-85
2021/03/27 12:39:17;;;;;;;;;;;;;;;;;;;;;
2021/03/27 12:41:54;;;;;;;2.10;1.10;;;;;;;12.62;46.27;96325.56;5061575;28;20224;-85
2021/03/27 12:44:37;;;;;;;1.73;1.10;;;;;;;12.47;45.25;96329.03;5070562;28;20231;-84
2021/03/27 12:47:43;;;;;;;1.47;1.10;;;;;;;12.12;45.12;96336.31;5072861;28;20697;-86
2021/03/27 12:50:45;;;;;;;1.87;1.00;;;;;;;12.04;45.43;96323.41;5031566;28;20228;-84
2021/03/27 12:53:53;;;;;;;5.07;1.10;;;;;;;11.98;45.66;96342.94;5072344;28;20227;-85
2021/03/27 12:57:15;;;;;;;6.53;5.43;;;;;;;12.04;45.27;96344.88;5035654;28;20457;-86
2021/03/27 13:00:14;;;;;;;2.93;2.53;;;;;;;12.25;44.94;96341.72;5031562;28;20286;-84
2021/03/27 13:03:34;;;;;;;1.00;0.90;;;;;;;12.19;44.26;96346.75;5028244;28;20225;-85
2021/03/27 13:17:34;;;;;;;2.00;1.20;;;;;;;12.64;42.76;96328.78;4913222;28;20257;-84
2021/03/27 13:23:36;;;;;;;2.60;1.10;;;;;;;12.78;42.89;96325.44;5020590;28;20294;-87
2021/03/27 13:26:25;;;;;;;1.77;1.03;;;;;;;12.70;41.55;96333.22;5040805;28;20226;-84
2021/03/27 13:29:33;;;;;;;1.67;1.07;;;;;;;12.68;41.01;96319.72;5026514;28;20218;-86
2021/03/27 13:35:34;;;;;;;0.90;0.90;;;;;;;12.34;43.33;96316.66;5029294;28;20238;-87
2021/03/27 13:38:44;;;;;;;2.33;1.20;;;;;;;12.32;43.43;96313.44;5036593;28;20253;-85
2021/03/27 13:41:50;;;;;;;1.77;1.10;;;;;;;12.23;43.26;96319.63;5036597;28;20226;-85
2021/03/27 13:44:31;;;;;;;2.07;1.20;;;;;;;12.26;43.63;96314.94;5033104;28;20236;-85
2021/03/27 13:47:27;;;;;;;2.90;1.30;;;;;;;12.29;43.50;96318.97;5044101;28;20222;-86
2021/03/27 13:50:29;;;;;;;1.73;1.60;;;;;;;12.27;43.95;96311.38;5030923;28;20232;-85
2021/03/27 13:56:27;;;;;;;1.60;1.10;;;;;;;12.48;43.74;96312.56;5174830;22;20593;-85
2021/03/27 13:59:34;;;;;;;1.70;1.13;;;;;;;12.44;43.01;96307.72;5058077;28;20229;-84
2021/03/27 14:02:53;;;;;;;1.73;1.27;;;;;;;12.32;43.08;96309.06;5036363;28;20297;-84
2021/03/27 14:12:38;;;;;;;1.33;1.10;;;;;;;12.33;42.71;96299.56;4961921;28;20233;-84
2021/03/27 14:15:53;;;;;;;;;;;;;;;;;;;;;
2021/03/27 14:19:03;;;;;;;1.57;1.17;;;;;;;12.51;41.84;96314.81;4990470;28;20238;-85
2021/03/27 14:22:04;;;;;;;;;;;;;;;;;;;;;
2021/03/27 14:25:14;;;;;;;;;;;;;;;;;;;;;
2021/03/27 14:27:52;;;;;;;8.23;6.03;;;;;;;12.50;41.53;96311.44;5012205;28;20229;-85
2021/03/27 14:31:08;;;;;;;2.23;1.20;;;;;;;12.51;41.13;96317.41;5021156;28;20244;-85
2021/03/27 14:34:28;;;;;;;2.23;1.10;;;;;;;12.35;40.85;96303.56;5052601;28;20260;-86
2021/03/27 14:37:38;;;;;;;1.67;1.20;;;;;;;12.37;40.64;96311.16;5051667;28;20229;-85
2021/03/27 14:40:54;;;;;;;1.27;1.10;;;;;;;12.52;40.54;96309.44;5052191;28;20263;-85
2021/03/27 14:46:48;;;;;;;2.90;1.10;;;;;;;13.04;40.31;96319.13;5020750;23;20292;-85
2021/03/27 15:00:27;;;;;;;1.53;1.33;;;;;;;12.80;39.73;96312.34;4873371;29;20235;-85
2021/03/27 15:03:37;;;;;;;2.30;1.10;;;;;;;12.70;39.32;96322.91;4991586;28;20234;-84
2021/03/27 15:10:46;;;;;;;1.10;0.93;;;;;;;12.61;38.47;96330.88;4979397;28;20233;-85
2021/03/27 15:13:48;;;;;;;1.13;0.90;;;;;;;12.52;37.58;96324.94;4992127;28;20215;-85
2021/03/27 15:17:33;;;;;;;3.37;1.10;;;;;;;12.60;37.42;96330.09;4878621;29;20226;-85
2021/03/27 15:20:44;;;;;;;1.80;1.20;;;;;;;12.71;37.71;96340.00;4785644;29;20763;-85
2021/03/27 15:30:04;;;;;;;1.90;1.37;;;;;;;12.76;38.14;96347.25;4944341;28;20235;-85
2021/03/27 15:33:39;;;;;;;0.93;0.90;;;;;;;12.69;37.75;96344.56;4972220;28;20243;-85
2021/03/27 15:39:58;;;;;;;2.63;1.30;;;;;;;12.77;37.22;96349.69;4865293;29;20900;-85
2021/03/27 15:49:46;;;;;;;1.40;1.10;;;;;;;12.66;36.50;96367.34;4898249;28;20248;-85
2021/03/27 15:52:49;;;;;;;;;;;;;;;;;;;;;
2021/03/27 15:55:48;;;;;;;1.20;0.90;;;;;;;12.47;35.53;96371.16;4970740;28;20659;-86
2021/03/27 15:58:36;;;;;;;0.97;0.90;;;;;;;12.49;36.25;96379.56;4956587;28;20238;-85
2021/03/27 16:01:13;;;;;;;1.23;1.00;;;;;;;12.44;35.94;96379.25;4971733;28;20216;-85
2021/03/27 16:09:57;;;;;;;1.10;1.00;;;;;;;12.57;36.02;96382.09;4955809;28;20258;-85
2021/03/27 16:12:50;;;;;;;2.47;1.00;;;;;;;12.67;35.96;96398.19;4971375;28;20231;-85
2021/03/27 16:22:34;;;;;;;2.30;1.20;;;;;;;12.55;35.65;96422.78;4970802;28;20223;-85
2021/03/27 16:25:36;;;;;;;1.40;1.10;;;;;;;12.54;35.22;96422.94;4979545;28;20236;-85
2021/03/27 16:32:06;;;;;;;2.13;1.20;;;;;;;12.41;36.22;96432.03;4941119;28;20282;-86
2021/03/27 16:35:07;;;;;;;2.10;0.90;;;;;;;12.38;35.43;96434.94;4980248;28;20281;-86
2021/03/27 16:38:23;;;;;;;;;;;;;;;;;;;;;
2021/03/27 16:41:03;;;;;;;2.00;1.10;;;;;;;12.34;35.13;96450.94;4999216;28;20231;-85
2021/03/27 16:43:52;;;;;;;21.60;16.37;;;;;;;12.34;35.39;96454.31;4982064;28;20196;-85
2021/03/27 16:56:18;;;;;;;1.17;1.00;;;;;;;12.20;35.10;96470.50;4949247;28;20227;-87
2021/03/27 16:59:24;;;;;;;1.80;1.17;;;;;;;12.30;35.80;96483.25;4974360;28;20231;-87
2021/03/27 17:02:11;;;;;;;4.70;3.50;;;;;;;12.17;35.05;96485.50;4969805;28;20223;-87
2021/03/27 17:05:12;;;;;;;7.47;4.80;;;;;;;12.20;35.36;96491.16;4968756;28;20231;-87
2021/03/27 17:07:56;;;;;;;2.93;2.60;;;;;;;12.18;35.69;96497.47;4935795;28;20327;-86
2021/03/27 17:13:48;;;;;;;1.60;1.20;;;;;;;12.28;35.75;96498.09;4967683;28;20218;-84
2021/03/27 17:16:45;;;;;;;1.30;1.07;;;;;;;12.25;36.37;96501.81;4958206;28;20234;-84
2021/03/27 17:34:16;;;;;;;1.30;1.20;;;;;;;11.99;37.33;96524.41;4771268;29;20718;-85
2021/03/27 17:37:23;;;;;;;3.70;1.20;;;;;;;12.02;37.82;96531.84;4783265;29;20299;-85
2021/03/27 17:40:19;;;;;;;1.67;1.00;;;;;;;12.08;37.32;96534.59;4844421;29;20235;-82
2021/03/27 17:42:59;;;;;;;2.10;1.10;;;;;;;11.96;36.47;96538.44;4857641;29;20659;-84
2021/03/27 17:45:47;;;;;;;1.50;1.13;;;;;;;12.00;36.40;96547.50;4914910;29;20873;-84
2021/03/27 17:48:24;;;;;;;1.57;1.20;;;;;;;11.97;36.24;96552.97;4994164;28;20223;-84
2021/03/27 17:51:09;;;;;;;1.97;1.27;;;;;;;12.02;36.42;96560.22;5001321;28;20226;-83
2021/03/27 17:53:51;;;;;;;1.53;1.10;;;;;;;12.09;36.44;96563.78;4991074;28;20219;-86
2021/03/27 17:56:25;;;;;;;2.60;1.30;;;;;;;11.98;36.32;96562.31;4993248;28;20270;-84
2021/03/27 17:58:54;;;;;;;2.00;1.27;;;;;;;11.99;36.55;96578.63;5009682;28;20257;-86
2021/03/27 18:01:26;;;;;;;1.30;1.10;;;;;;;11.94;36.72;96570.53;4997062;28;20301;-84
2021/03/27 18:04:04;;;;;;;1.53;1.10;;;;;;;11.89;36.00;96573.63;5005439;28;20211;-85
2021/03/27 18:06:38;;;;;;;1.33;1.00;;;;;;;11.89;36.35;96576.22;4996136;28;20801;-85
2021/03/27 18:09:07;;;;;;;2.67;1.37;;;;;;;11.90;36.84;96590.72;4988047;28;20231;-84
2021/03/27 18:11:49;;;;;;;1.63;1.20;;;;;;;11.81;35.93;96585.69;4987033;28;20250;-86
2021/03/27 18:14:28;;;;;;;2.30;1.40;;;;;;;11.69;36.19;96588.56;4973399;28;20269;-85
2021/03/27 18:17:04;;;;;;;1.10;1.00;;;;;;;11.61;36.02;96600.63;5009570;28;20230;-85
2021/03/27 18:19:39;;;;;;;3.23;1.40;;;;;;;11.68;36.17;96599.84;4970915;28;20222;-85
2021/03/27 18:22:14;;;;;;;1.90;1.33;;;;;;;11.79;36.42;96608.28;4975354;28;20298;-85
2021/03/27 18:24:44;;;;;;;3.43;1.57;;;;;;;11.81;35.55;96608.91;5010540;28;20260;-84
2021/03/27 18:27:23;;;;;;;3.93;1.13;;;;;;;11.81;35.87;96611.50;5007969;28;20305;-84